Time;durP1;ratioP1;P1;durP2;ratioP2;P2;SDS_P1;SDS_P2;PMS_P1;PMS_P2;Temp;Humidity;BMP_temperature;BMP_pressure;BME280_temperature;BME280_humidity;BME280_pressure;Samples;Min_cycle;Max_cycle;Signal;HPM_P1;HPM_P2
2022/05/30 00:00:42;;;;;;;6.60;4.70;;;7.00;99.90;;;;;;5068947;28;20493;-70
2022/05/30 00:03:09;;;;;;;4.50;3.93;;;6.90;99.90;;;;;;5069408;28;20442;-69
2022/05/30 00:05:36;;;;;;;5.40;4.87;;;6.80;99.90;;;;;;5069547;28;20445;-70
2022/05/30 00:08:03;;;;;;;5.77;3.90;;;6.80;99.90;;;;;;5069894;28;20975;-69
2022/05/30 00:10:31;;;;;;;7.17;4.67;;;6.80;99.90;;;;;;5069503;28;20447;-69
2022/05/30 00:12:58;;;;;;;5.60;4.07;;;6.80;99.90;;;;;;5070154;28;20443;-70
2022/05/30 00:15:25;;;;;;;7.10;4.73;;;6.70;99.90;;;;;;5070225;28;20438;-70
2022/05/30 00:17:56;;;;;;;5.53;4.83;;;6.70;99.90;;;;;;5070202;28;20517;-70
2022/05/30 00:20:24;;;;;;;5.67;4.97;;;6.70;99.90;;;;;;5068956;28;20483;-70
2022/05/30 00:22:51;;;;;;;5.20;4.70;;;6.60;99.90;;;;;;5070114;28;20451;-69
2022/05/30 00:25:19;;;;;;;6.47;4.67;;;6.60;99.90;;;;;;5069564;28;20450;-70
2022/05/30 00:27:47;;;;;;;12.67;5.10;;;6.50;99.90;;;;;;5069812;28;20533;-70
2022/05/30 00:30:19;;;;;;;4.33;3.70;;;6.60;99.90;;;;;;5069167;28;20459;-69
2022/05/30 00:32:45;;;;;;;4.53;4.13;;;6.60;99.90;;;;;;5070011;28;20443;-70
2022/05/30 00:35:13;;;;;;;6.13;4.40;;;6.60;99.90;;;;;;5069446;28;20553;-70
2022/05/30 00:37:40;;;;;;;4.90;4.40;;;6.60;99.90;;;;;;5069641;28;20933;-69
2022/05/30 00:40:09;;;;;;;5.70;4.13;;;6.60;99.90;;;;;;5068984;28;20510;-69
2022/05/30 00:42:36;;;;;;;5.30;4.67;;;6.50;99.90;;;;;;5069861;28;20438;-70
2022/05/30 00:45:04;;;;;;;5.63;5.07;;;6.50;99.90;;;;;;5069508;28;20459;-69
2022/05/30 00:47:31;;;;;;;10.60;4.93;;;6.60;99.90;;;;;;5069754;28;20500;-69
2022/05/30 00:49:59;;;;;;;11.40;5.53;;;6.70;99.90;;;;;;5071509;28;20554;-70
2022/05/30 00:52:28;;;;;;;6.30;4.53;;;6.80;99.90;;;;;;5069502;28;20443;-68
2022/05/30 00:54:59;;;;;;;6.53;4.83;;;6.80;99.90;;;;;;5069358;28;20446;-71
2022/05/30 00:57:28;;;;;;;6.10;5.00;;;6.70;99.90;;;;;;5069919;28;20500;-69
2022/05/30 00:59:57;;;;;;;5.60;4.67;;;6.60;99.90;;;;;;5068710;28;20483;-69
2022/05/30 01:02:28;;;;;;;4.97;4.47;;;6.60;99.90;;;;;;5069499;28;20499;-70
2022/05/30 01:07:41;;;;;;;7.27;4.30;;;6.40;99.90;;;;;;5069746;28;20528;-68
2022/05/30 01:10:10;;;;;;;6.20;4.67;;;6.40;99.90;;;;;;5068722;28;20463;-69
2022/05/30 01:12:41;;;;;;;7.83;4.80;;;6.30;99.90;;;;;;5069521;28;20541;-70
2022/05/30 01:15:10;;;;;;;6.37;5.40;;;6.20;99.90;;;;;;5069260;28;20820;-70
2022/05/30 01:17:48;;;;;;;6.57;5.30;;;6.20;99.90;;;;;;5069787;28;20447;-70
2022/05/30 01:20:26;;;;;;;5.67;4.93;;;6.10;99.90;;;;;;5068889;28;20501;-69
2022/05/30 01:23:18;;;;;;;6.27;4.97;;;6.00;99.90;;;;;;5069991;28;20923;-69
2022/05/30 01:26:07;;;;;;;10.40;5.93;;;6.00;99.90;;;;;;5068811;28;20967;-70
2022/05/30 01:28:42;;;;;;;6.67;5.40;;;6.00;99.90;;;;;;5069630;28;20443;-70
2022/05/30 01:31:09;;;;;;;6.87;6.17;;;6.00;99.90;;;;;;5068553;28;20485;-70
2022/05/30 01:33:36;;;;;;;6.07;5.30;;;6.00;99.90;;;;;;5069508;28;20462;-70
2022/05/30 01:36:04;;;;;;;12.27;5.70;;;6.00;99.90;;;;;;5068941;28;20454;-70
2022/05/30 01:38:31;;;;;;;5.80;5.30;;;6.20;99.90;;;;;;5069229;28;20435;-70
2022/05/30 01:40:59;;;;;;;7.00;5.00;;;6.20;99.90;;;;;;5068414;28;20483;-70
2022/05/30 01:43:26;;;;;;;5.73;5.13;;;6.20;99.90;;;;;;5069481;28;20875;-70
2022/05/30 01:45:54;;;;;;;5.87;5.33;;;6.10;99.90;;;;;;5070326;28;20480;-70
2022/05/30 01:48:22;;;;;;;6.33;5.30;;;6.00;99.90;;;;;;5073017;28;20852;-70
2022/05/30 01:50:49;;;;;;;7.10;5.63;;;5.90;99.90;;;;;;5071736;28;20490;-70
2022/05/30 01:53:16;;;;;;;6.90;5.73;;;5.80;99.90;;;;;;5073075;28;20446;-70
2022/05/30 01:55:43;;;;;;;5.57;5.07;;;5.80;99.90;;;;;;5072440;28;20450;-70
2022/05/30 01:58:09;;;;;;;6.83;6.20;;;5.70;99.90;;;;;;5072798;28;21220;-70
2022/05/30 02:00:37;;;;;;;7.30;5.60;;;5.90;99.90;;;;;;5071673;28;20505;-70
2022/05/30 02:03:06;;;;;;;5.80;5.20;;;6.00;99.90;;;;;;5072460;28;20442;-70
2022/05/30 02:05:33;;;;;;;7.17;4.77;;;6.00;99.90;;;;;;5071070;28;20451;-70
2022/05/30 02:08:01;;;;;;;8.90;6.13;;;5.90;99.90;;;;;;5072420;28;20447;-70
2022/05/30 02:10:29;;;;;;;5.87;5.27;;;5.70;99.90;;;;;;5071852;28;20481;-70
2022/05/30 02:12:56;;;;;;;6.07;5.57;;;5.60;99.90;;;;;;5072979;28;20532;-70
2022/05/30 02:15:23;;;;;;;6.03;4.87;;;5.60;99.90;;;;;;5072256;28;20451;-69
2022/05/30 02:17:49;;;;;;;6.10;5.10;;;5.60;99.90;;;;;;5072107;28;20530;-70
2022/05/30 02:20:17;;;;;;;5.37;4.60;;;5.50;99.90;;;;;;5071404;28;20831;-70
2022/05/30 02:22:45;;;;;;;6.63;5.50;;;5.40;99.90;;;;;;5072369;28;20435;-70
2022/05/30 02:25:13;;;;;;;6.37;4.93;;;5.30;99.90;;;;;;5071778;28;20446;-70
2022/05/30 02:27:41;;;;;;;6.43;5.73;;;5.40;99.90;;;;;;5071983;28;20530;-70
2022/05/30 02:30:09;;;;;;;7.50;5.83;;;5.40;99.90;;;;;;5071311;28;20473;-70
2022/05/30 02:32:36;;;;;;;6.87;6.17;;;5.40;99.90;;;;;;5071949;28;20826;-69
2022/05/30 02:37:50;;;;;;;7.80;5.67;;;5.30;99.90;;;;;;5072161;28;20441;-70
2022/05/30 02:40:17;;;;;;;7.10;5.60;;;5.20;99.90;;;;;;5070884;28;20989;-70
2022/05/30 02:42:45;;;;;;;10.20;5.00;;;5.30;99.90;;;;;;5071998;28;20538;-70
2022/05/30 02:45:12;;;;;;;6.53;5.50;;;5.30;99.90;;;;;;5071620;28;20455;-70
2022/05/30 02:47:38;;;;;;;6.70;5.93;;;5.30;99.90;;;;;;5071933;28;20829;-70
2022/05/30 02:50:06;;;;;;;6.10;5.50;;;5.30;99.90;;;;;;5070840;28;20467;-70
2022/05/30 02:52:33;;;;;;;7.03;5.70;;;5.40;99.90;;;;;;5071805;28;20477;-70
2022/05/30 02:55:01;;;;;;;7.87;5.67;;;5.40;99.90;;;;;;5071152;28;20485;-70
2022/05/30 02:57:28;;;;;;;6.13;5.50;;;5.30;99.90;;;;;;5071520;28;20820;-70
2022/05/30 02:59:55;;;;;;;6.73;5.17;;;5.20;99.90;;;;;;5070740;28;20473;-69
2022/05/30 03:02:21;;;;;;;7.70;5.27;;;5.10;99.90;;;;;;5071490;28;20455;-70
2022/05/30 03:04:48;;;;;;;5.87;5.27;;;5.20;99.90;;;;;;5071058;28;20788;-69
2022/05/30 03:07:15;;;;;;;6.03;5.10;;;5.30;99.90;;;;;;5071331;28;20542;-70
2022/05/30 03:09:44;;;;;;;7.40;5.20;;;5.30;99.90;;;;;;5071309;28;20532;-69
2022/05/30 03:12:12;;;;;;;6.13;5.20;;;5.40;99.90;;;;;;5070691;28;20941;-70
2022/05/30 03:14:39;;;;;;;5.43;4.93;;;5.40;99.90;;;;;;5071166;28;20466;-70
2022/05/30 03:17:06;;;;;;;5.27;4.73;;;5.40;99.90;;;;;;5071251;28;20454;-70
2022/05/30 03:19:33;;;;;;;6.03;4.90;;;5.40;99.90;;;;;;5071245;28;20837;-70
2022/05/30 03:21:59;;;;;;;6.40;5.00;;;5.40;99.90;;;;;;5070238;28;20505;-69
2022/05/30 03:24:26;;;;;;;5.60;5.10;;;5.40;99.90;;;;;;5070604;28;21005;-69
2022/05/30 03:26:53;;;;;;;6.50;4.70;;;5.30;99.90;;;;;;5070821;28;20787;-70
2022/05/30 03:29:22;;;;;;;6.50;4.70;;;5.30;99.90;;;;;;5071384;28;20538;-69
2022/05/30 03:31:49;;;;;;;6.30;5.43;;;5.20;99.90;;;;;;5070066;28;20858;-70
2022/05/30 03:34:15;;;;;;;7.93;5.17;;;5.30;99.90;;;;;;5070783;28;20449;-69
2022/05/30 03:36:42;;;;;;;7.00;5.53;;;5.20;99.90;;;;;;5070827;28;21015;-69
2022/05/30 03:39:09;;;;;;;6.13;5.00;;;5.20;99.90;;;;;;5070663;28;20540;-69
2022/05/30 03:41:36;;;;;;;5.90;5.03;;;5.20;99.90;;;;;;5069863;28;20493;-69
2022/05/30 03:44:03;;;;;;;5.97;5.00;;;5.20;99.90;;;;;;5070542;28;20460;-70
2022/05/30 03:46:32;;;;;;;7.20;5.60;;;5.10;99.90;;;;;;5070548;28;20534;-70
2022/05/30 03:48:59;;;;;;;6.60;5.87;;;5.20;99.90;;;;;;5070478;28;20447;-69
2022/05/30 03:51:26;;;;;;;6.53;5.77;;;5.20;99.90;;;;;;5069660;28;20546;-69
2022/05/30 03:53:53;;;;;;;7.53;5.60;;;5.30;99.90;;;;;;5070871;28;20451;-70
2022/05/30 03:56:20;;;;;;;8.10;6.43;;;5.40;99.90;;;;;;5070503;28;20447;-69
2022/05/30 03:58:47;;;;;;;6.23;5.20;;;5.40;99.90;;;;;;5069572;28;20447;-70
2022/05/30 04:01:14;;;;;;;6.53;5.23;;;5.50;99.90;;;;;;5069356;28;20874;-70
2022/05/30 04:03:42;;;;;;;6.40;5.40;;;5.50;99.90;;;;;;5069777;28;20475;-70
2022/05/30 04:06:11;;;;;;;10.20;6.10;;;5.40;99.90;;;;;;5070085;28;20825;-70
2022/05/30 04:08:38;;;;;;;7.00;6.17;;;5.40;99.90;;;;;;5070069;28;20438;-70
2022/05/30 04:11:05;;;;;;;7.30;6.57;;;5.50;99.90;;;;;;5069541;28;20467;-66
2022/05/30 04:13:33;;;;;;;9.13;6.47;;;5.60;99.90;;;;;;5070211;28;20459;-69
2022/05/30 04:16:07;;;;;;;6.87;6.17;;;5.70;99.90;;;;;;5068733;28;20466;-70
2022/05/30 04:18:34;;;;;;;8.57;6.80;;;5.80;99.90;;;;;;5069866;28;20962;-69
2022/05/30 04:21:02;;;;;;;8.10;6.70;;;5.90;99.90;;;;;;5068780;28;20864;-71
2022/05/30 04:23:29;;;;;;;7.43;6.20;;;5.90;99.90;;;;;;5070265;28;20485;-70
2022/05/30 04:25:56;;;;;;;8.00;5.87;;;5.70;99.90;;;;;;5069444;28;20486;-70
2022/05/30 04:28:23;;;;;;;6.47;5.77;;;5.60;99.90;;;;;;5070341;28;20461;-71
2022/05/30 04:30:50;;;;;;;6.43;5.77;;;5.60;99.90;;;;;;5068661;28;21016;-72
2022/05/30 04:33:17;;;;;;;7.60;6.23;;;5.60;99.90;;;;;;5069930;28;20554;-69
2022/05/30 04:35:44;;;;;;;6.50;5.80;;;5.50;99.90;;;;;;5069267;28;20518;-72
2022/05/30 04:38:12;;;;;;;7.20;6.23;;;5.60;99.90;;;;;;5069939;28;20447;-72
2022/05/30 04:40:38;;;;;;;6.40;5.77;;;5.60;99.90;;;;;;5068766;28;20473;-71
2022/05/30 04:43:06;;;;;;;6.40;5.10;;;5.80;99.90;;;;;;5069363;28;20889;-70
2022/05/30 04:45:33;;;;;;;7.90;6.43;;;6.00;99.90;;;;;;5069155;28;20901;-70
2022/05/30 04:48:01;;;;;;;8.57;6.27;;;6.20;99.90;;;;;;5069462;28;20490;-70
2022/05/30 04:50:28;;;;;;;6.47;5.87;;;6.30;99.90;;;;;;5068821;28;20494;-69
2022/05/30 04:52:55;;;;;;;6.10;5.50;;;6.30;99.90;;;;;;5069574;28;20447;-70
2022/05/30 04:55:23;;;;;;;7.10;6.20;;;6.30;99.90;;;;;;5069308;28;20546;-70
2022/05/30 04:57:52;;;;;;;6.13;5.53;;;6.30;99.90;;;;;;5069567;28;20439;-70
2022/05/30 05:00:24;;;;;;;6.13;5.53;;;6.40;99.90;;;;;;5068647;28;20471;-70
2022/05/30 05:02:53;;;;;;;6.60;5.77;;;6.50;99.90;;;;;;5069444;28;20482;-70
2022/05/30 05:05:20;;;;;;;6.67;5.97;;;6.60;99.90;;;;;;5069154;28;20454;-70
2022/05/30 05:07:55;;;;;;;6.07;5.17;;;6.60;99.90;;;;;;5069198;28;20451;-70
2022/05/30 05:10:34;;;;;;;6.90;6.07;;;6.60;99.90;;;;;;5066854;28;20565;-70
2022/05/30 05:13:01;;;;;;;7.23;5.90;;;6.70;99.90;;;;;;5068685;28;20443;-70
2022/05/30 05:15:28;;;;;;;6.33;5.73;;;6.80;99.90;;;;;;5068775;28;20447;-71
2022/05/30 05:17:55;;;;;;;6.20;5.60;;;6.90;99.90;;;;;;5066471;28;20451;-71
2022/05/30 05:20:23;;;;;;;6.03;5.43;;;7.10;99.90;;;;;;5068269;28;20475;-71
2022/05/30 05:22:50;;;;;;;6.43;5.50;;;7.20;99.90;;;;;;5071470;28;20478;-71
2022/05/30 05:25:17;;;;;;;7.97;5.60;;;7.30;99.90;;;;;;5067513;28;20996;-71
2022/05/30 05:27:45;;;;;;;7.50;5.10;;;7.30;99.90;;;;;;5071892;28;20458;-71
2022/05/30 05:30:13;;;;;;;9.90;5.13;;;7.30;99.90;;;;;;5070703;28;20469;-68
2022/05/30 05:32:40;;;;;;;6.07;5.47;;;7.40;99.90;;;;;;5072294;28;20446;-71
2022/05/30 05:35:08;;;;;;;7.50;6.07;;;7.50;99.90;;;;;;5072222;28;20443;-70
2022/05/30 05:37:35;;;;;;;6.87;5.70;;;7.50;99.90;;;;;;5072998;28;21027;-69
2022/05/30 05:40:02;;;;;;;5.73;5.17;;;7.60;99.90;;;;;;5071786;28;20455;-69
2022/05/30 05:42:29;;;;;;;6.53;5.87;;;7.70;99.90;;;;;;5073001;28;20573;-68
2022/05/30 05:44:57;;;;;;;6.17;5.57;;;7.80;99.90;;;;;;5072523;28;20443;-68
2022/05/30 05:47:24;;;;;;;7.23;6.50;;;7.80;99.90;;;;;;5073001;28;20516;-68
2022/05/30 05:49:51;;;;;;;6.77;6.07;;;7.90;99.90;;;;;;5071072;28;20477;-68
2022/05/30 05:52:19;;;;;;;9.77;6.00;;;7.90;99.90;;;;;;5072551;28;20483;-68
2022/05/30 05:54:45;;;;;;;8.03;6.27;;;7.90;99.90;;;;;;5072529;28;20451;-68
2022/05/30 05:57:12;;;;;;;8.87;6.00;;;8.00;99.90;;;;;;5072762;28;20453;-68
2022/05/30 05:59:39;;;;;;;13.30;6.67;;;8.10;99.90;;;;;;5072610;28;20446;-67
2022/05/30 06:02:08;;;;;;;7.57;6.03;;;8.20;99.90;;;;;;5071665;28;20506;-67
2022/05/30 06:04:37;;;;;;;8.10;6.57;;;8.20;99.90;;;;;;5071928;28;20992;-66
2022/05/30 06:07:04;;;;;;;7.83;6.80;;;8.30;99.90;;;;;;5072455;28;20850;-64
2022/05/30 06:09:31;;;;;;;7.37;6.67;;;8.40;99.90;;;;;;5072389;28;20447;-66
2022/05/30 06:11:58;;;;;;;6.50;5.87;;;8.50;99.90;;;;;;5073876;28;20450;-67
2022/05/30 06:14:25;;;;;;;6.57;5.93;;;8.60;99.90;;;;;;5070190;28;20827;-67
2022/05/30 06:16:52;;;;;;;6.70;5.80;;;8.60;99.90;;;;;;5072369;28;20439;-67
2022/05/30 06:19:20;;;;;;;8.47;6.47;;;8.70;99.90;;;;;;5071970;28;20530;-66
2022/05/30 06:21:47;;;;;;;7.07;6.00;;;8.80;99.90;;;;;;5070911;28;20498;-67
2022/05/30 06:24:15;;;;;;;7.30;6.60;;;8.90;99.90;;;;;;5071891;28;20890;-66
2022/05/30 06:26:44;;;;;;;7.53;6.00;;;9.00;99.90;;;;;;5072480;28;20905;-67
2022/05/30 06:29:11;;;;;;;8.20;7.40;;;9.00;99.90;;;;;;5072461;28;20454;-67
2022/05/30 06:31:38;;;;;;;7.13;6.43;;;9.10;99.90;;;;;;5070323;28;20828;-67
2022/05/30 06:34:05;;;;;;;6.73;5.40;;;9.20;99.90;;;;;;5057960;28;20535;-67
2022/05/30 06:36:34;;;;;;;7.23;5.30;;;9.20;99.90;;;;;;5052269;28;20452;-67
2022/05/30 06:39:01;;;;;;;7.03;5.27;;;9.40;99.90;;;;;;5052432;28;20459;-67
2022/05/30 06:41:31;;;;;;;6.20;5.60;;;9.50;99.90;;;;;;5051432;28;20484;-67
2022/05/30 06:44:02;;;;;;;6.00;5.20;;;9.60;99.90;;;;;;5052213;28;20547;-68
2022/05/30 06:46:29;;;;;;;6.60;6.00;;;9.70;99.90;;;;;;5053827;28;20440;-68
2022/05/30 06:48:56;;;;;;;5.97;5.37;;;9.90;99.90;;;;;;5069044;28;20865;-68
2022/05/30 06:51:24;;;;;;;6.33;5.13;;;10.00;99.90;;;;;;5069796;28;20466;-67
2022/05/30 06:53:52;;;;;;;5.00;4.50;;;10.00;99.90;;;;;;5073372;28;20948;-67
2022/05/30 06:56:23;;;;;;;7.00;5.37;;;10.10;99.90;;;;;;5071114;28;20441;-67
2022/05/30 06:58:51;;;;;;;8.60;6.23;;;10.30;99.90;;;;;;5071094;28;20439;-68
2022/05/30 07:01:19;;;;;;;5.30;4.57;;;10.40;99.90;;;;;;5070673;28;20558;-68
2022/05/30 07:03:46;;;;;;;5.73;4.93;;;10.60;99.90;;;;;;5070611;28;20482;-68
2022/05/30 07:06:16;;;;;;;6.20;4.90;;;10.70;99.90;;;;;;5071232;28;20447;-66
2022/05/30 07:08:45;;;;;;;6.30;4.90;;;10.90;99.90;;;;;;5071398;28;20447;-67
2022/05/30 07:11:14;;;;;;;6.33;4.67;;;11.00;99.90;;;;;;5070404;28;20992;-66
2022/05/30 07:13:41;;;;;;;5.67;5.03;;;11.20;99.90;;;;;;5071605;28;20451;-68
2022/05/30 07:16:09;;;;;;;5.07;4.60;;;11.20;99.90;;;;;;5071379;28;20923;-68
2022/05/30 07:18:37;;;;;;;5.73;4.50;;;11.40;99.90;;;;;;5071184;28;21039;-68
2022/05/30 07:21:07;;;;;;;5.57;4.80;;;11.50;99.90;;;;;;5070399;28;20529;-68
2022/05/30 07:23:36;;;;;;;5.80;4.63;;;11.70;99.90;;;;;;5071170;28;20483;-68
2022/05/30 07:26:06;;;;;;;5.23;4.30;;;11.70;99.90;;;;;;5070761;28;20444;-68
2022/05/30 07:28:34;;;;;;;6.90;4.60;;;11.70;99.90;;;;;;5071508;28;20457;-68
2022/05/30 07:31:05;;;;;;;6.10;4.37;;;11.90;99.90;;;;;;5070257;28;20510;-68
2022/05/30 07:33:32;;;;;;;6.03;4.10;;;11.90;99.90;;;;;;5071064;28;20798;-65
2022/05/30 07:36:00;;;;;;;4.40;3.63;;;12.10;99.90;;;;;;5070479;28;20458;-68
2022/05/30 07:38:27;;;;;;;5.03;3.33;;;12.20;99.90;;;;;;5070627;28;20470;-68
2022/05/30 07:40:54;;;;;;;5.40;3.93;;;12.20;99.90;;;;;;5070083;28;20471;-68
2022/05/30 07:43:21;;;;;;;6.10;3.87;;;12.30;99.90;;;;;;5069829;28;20497;-68
2022/05/30 07:45:49;;;;;;;5.50;3.73;;;12.50;99.90;;;;;;5070521;28;20451;-68
2022/05/30 07:48:16;;;;;;;3.80;2.97;;;12.60;99.90;;;;;;5070568;28;20832;-67
2022/05/30 07:50:43;;;;;;;6.50;3.50;;;12.70;99.90;;;;;;5068799;28;20903;-68
2022/05/30 07:53:12;;;;;;;4.90;4.20;;;12.90;99.90;;;;;;5066851;28;20976;-68
2022/05/30 07:55:40;;;;;;;5.37;3.80;;;12.90;99.90;;;;;;5067659;28;20440;-68
2022/05/30 07:58:07;;;;;;;4.33;3.50;;;13.00;99.90;;;;;;5068268;28;20518;-68
2022/05/30 08:00:36;;;;;;;5.10;3.60;;;13.10;99.90;;;;;;5064986;28;20470;-67
2022/05/30 08:03:05;;;;;;;5.10;3.70;;;13.20;99.90;;;;;;5069433;28;20450;-68
2022/05/30 08:05:33;;;;;;;5.13;3.73;;;13.30;99.90;;;;;;5069872;28;20447;-67
2022/05/30 08:08:00;;;;;;;4.77;3.90;;;13.40;99.90;;;;;;5067182;28;20963;-68
2022/05/30 08:10:27;;;;;;;4.60;2.70;;;13.60;99.90;;;;;;5069434;28;20481;-68
2022/05/30 08:12:54;;;;;;;6.50;3.63;;;13.70;99.90;;;;;;5064073;28;20459;-68
2022/05/30 08:15:21;;;;;;;5.07;3.07;;;13.80;99.90;;;;;;5066461;28;20534;-68
2022/05/30 08:17:48;;;;;;;4.53;3.93;;;14.00;99.90;;;;;;5069867;28;20542;-67
2022/05/30 08:20:17;;;;;;;5.57;3.73;;;14.20;99.90;;;;;;5069050;28;20806;-68
2022/05/30 08:22:45;;;;;;;3.87;3.10;;;14.40;99.90;;;;;;5065038;28;20501;-68
2022/05/30 08:25:14;;;;;;;5.70;3.27;;;14.60;99.90;;;;;;5069588;28;20447;-67
2022/05/30 08:27:42;;;;;;;4.43;3.17;;;14.70;99.90;;;;;;5067452;28;20459;-66
2022/05/30 08:30:10;;;;;;;3.50;2.70;;;14.90;99.90;;;;;;5067664;28;20964;-67
2022/05/30 08:32:39;;;;;;;5.10;3.13;;;15.10;99.90;;;;;;5068573;28;20439;-67
2022/05/30 08:35:08;;;;;;;4.50;2.70;;;15.30;99.90;;;;;;5068537;28;20447;-68
2022/05/30 08:37:37;;;;;;;4.27;2.80;;;15.40;99.90;;;;;;5069614;28;20443;-67
2022/05/30 08:42:52;;;;;;;5.83;2.97;;;15.50;99.90;;;;;;5067236;28;20466;-67
2022/05/30 08:45:21;;;;;;;4.73;3.00;;;15.70;99.90;;;;;;5069452;28;20974;-67
2022/05/30 08:47:51;;;;;;;5.80;2.60;;;15.80;99.90;;;;;;5069381;28;20530;-66
2022/05/30 08:50:36;;;;;;;3.17;2.80;;;15.80;99.90;;;;;;5069675;28;20546;-67
2022/05/30 08:53:24;;;;;;;4.83;3.33;;;16.00;99.90;;;;;;5055086;28;20522;-67
2022/05/30 08:55:58;;;;;;;3.50;2.77;;;16.00;99.90;;;;;;5065978;28;20498;-68
2022/05/30 08:58:40;;;;;;;5.43;2.90;;;16.10;99.90;;;;;;5064285;28;20846;-67
2022/05/30 09:01:12;;;;;;;3.90;2.33;;;16.30;99.90;;;;;;5060236;28;20462;-67
2022/05/30 09:03:42;;;;;;;7.30;2.40;;;16.50;99.90;;;;;;5069488;28;20578;-67
2022/05/30 09:06:17;;;;;;;3.93;2.30;;;16.70;99.90;;;;;;5069498;28;20446;-66
2022/05/30 09:08:50;;;;;;;2.60;2.00;;;16.90;98.10;;;;;;5069866;28;20439;-66
2022/05/30 09:11:28;;;;;;;5.10;2.03;;;16.80;97.30;;;;;;5068908;28;20577;-69
2022/05/30 09:13:59;;;;;;;3.27;1.80;;;16.80;94.50;;;;;;5069616;28;20443;-68
2022/05/30 09:16:37;;;;;;;4.17;2.47;;;16.80;94.10;;;;;;5069469;28;20446;-68
2022/05/30 09:19:07;;;;;;;5.00;2.93;;;16.90;93.70;;;;;;5053722;28;20944;-66
2022/05/30 09:21:34;;;;;;;3.23;2.60;;;17.10;95.60;;;;;;5068910;28;20489;-66
2022/05/30 09:24:03;;;;;;;4.50;2.83;;;17.30;96.30;;;;;;5068468;28;20853;-68
2022/05/30 09:26:33;;;;;;;3.77;2.43;;;17.40;92.70;;;;;;5068659;28;20447;-69
2022/05/30 09:29:03;;;;;;;2.60;1.90;;;17.50;95.10;;;;;;5069004;28;20435;-66
2022/05/30 09:31:42;;;;;;;4.10;2.00;;;17.60;93.80;;;;;;5064751;28;20486;-67
2022/05/30 09:34:38;;;;;;;2.90;1.90;;;17.80;94.10;;;;;;5067613;28;20454;-67
2022/05/30 09:37:05;;;;;;;3.30;2.30;;;17.80;91.50;;;;;;5061345;28;20439;-66
2022/05/30 09:39:45;;;;;;;3.70;2.03;;;17.60;92.40;;;;;;5069059;28;20443;-67
2022/05/30 09:42:25;;;;;;;3.70;2.10;;;17.50;90.40;;;;;;5068595;28;20439;-67
2022/05/30 09:44:56;;;;;;;4.40;2.07;;;17.30;92.20;;;;;;5068982;28;21087;-67
2022/05/30 09:47:23;;;;;;;3.00;2.23;;;17.60;92.60;;;;;;5069085;28;20451;-67
2022/05/30 09:49:51;;;;;;;3.57;2.53;;;17.80;90.90;;;;;;5068425;28;20494;-67
2022/05/30 09:52:36;;;;;;;4.73;2.17;;;18.10;90.00;;;;;;5068971;28;21135;-68
2022/05/30 09:55:25;;;;;;;3.70;2.40;;;18.90;89.60;;;;;;5052329;28;20485;-67
2022/05/30 09:57:53;;;;;;;4.10;1.73;;;19.50;81.70;;;;;;5068938;28;20447;-67
2022/05/30 10:00:32;;;;;;;2.80;1.80;;;20.60;82.30;;;;;;5068118;28;20468;-68
2022/05/30 10:03:03;;;;;;;5.93;1.50;;;22.00;81.80;;;;;;5068825;28;20540;-67
2022/05/30 10:05:31;;;;;;;3.60;1.97;;;23.20;78.70;;;;;;5068745;28;20987;-67
2022/05/30 10:08:00;;;;;;;3.07;1.80;;;24.00;71.30;;;;;;5071121;28;21121;-68
2022/05/30 10:10:31;;;;;;;3.40;1.43;;;24.60;69.60;;;;;;5068022;28;20494;-67
2022/05/30 10:12:59;;;;;;;3.60;1.53;;;25.40;65.10;;;;;;5072135;28;20442;-68
2022/05/30 10:15:30;;;;;;;3.20;1.50;;;25.70;59.50;;;;;;5072140;28;20491;-68
2022/05/30 10:18:17;;;;;;;3.47;2.03;;;25.60;55.70;;;;;;5072014;28;20929;-68
2022/05/30 10:20:50;;;;;;;3.87;1.67;;;25.20;56.00;;;;;;5071193;28;20538;-68
2022/05/30 10:29:28;;;;;;;3.27;1.30;;;25.90;51.90;;;;;;5012920;28;20550;-68
2022/05/30 10:32:05;;;;;;;4.20;1.73;;;25.10;54.00;;;;;;5065152;28;20458;-68
2022/05/30 10:34:53;;;;;;;2.53;1.63;;;25.20;52.50;;;;;;5071516;28;20952;-68
2022/05/30 10:37:31;;;;;;;4.73;1.83;;;24.90;52.70;;;;;;5068778;28;20453;-68
2022/05/30 10:40:12;;;;;;;2.73;1.30;;;24.70;52.50;;;;;;5056714;28;20455;-68
2022/05/30 10:42:45;;;;;;;5.67;1.63;;;24.70;53.80;;;;;;5072248;28;20504;-68
2022/05/30 10:45:19;;;;;;;3.70;1.40;;;25.30;55.30;;;;;;5071682;28;20435;-68
2022/05/30 10:47:48;;;;;;;19.50;3.90;;;25.80;51.40;;;;;;5070993;28;20443;-68
2022/05/30 10:50:21;;;;;;;2.63;1.47;;;26.10;54.10;;;;;;5069572;28;20483;-67
2022/05/30 10:52:51;;;;;;;4.10;1.70;;;25.30;49.60;;;;;;5067096;28;20948;-67
2022/05/30 10:55:25;;;;;;;3.17;1.63;;;24.10;50.10;;;;;;5071570;28;20667;-68
2022/05/30 10:57:58;;;;;;;4.00;1.50;;;23.10;52.20;;;;;;5056411;28;20534;-68
2022/05/30 11:00:29;;;;;;;3.07;1.67;;;23.10;53.60;;;;;;5070659;28;20463;-68
2022/05/30 11:03:02;;;;;;;2.63;1.30;;;23.90;57.10;;;;;;5067839;28;20580;-67
2022/05/30 11:05:43;;;;;;;4.00;1.60;;;23.90;53.50;;;;;;5067623;28;20451;-67
2022/05/30 11:08:18;;;;;;;3.30;1.63;;;23.20;56.70;;;;;;5067412;28;20462;-68
2022/05/30 11:10:51;;;;;;;2.80;1.60;;;23.40;56.50;;;;;;5070324;28;20455;-68
2022/05/30 11:13:28;;;;;;;2.80;1.10;;;23.40;57.60;;;;;;5071634;28;20455;-68
2022/05/30 11:16:02;;;;;;;4.00;1.40;;;23.70;57.10;;;;;;5069489;28;20447;-68
2022/05/30 11:18:34;;;;;;;2.27;1.40;;;24.70;55.80;;;;;;5056367;28;20444;-68
2022/05/30 11:21:08;;;;;;;2.80;1.23;;;25.60;53.20;;;;;;5070290;28;20469;-68
2022/05/30 11:23:35;;;;;;;3.73;1.80;;;26.60;49.60;;;;;;5071325;28;20710;-67
2022/05/30 11:26:24;;;;;;;8.70;1.57;;;27.60;48.30;;;;;;5070934;28;20471;-67
2022/05/30 11:29:16;;;;;;;3.53;1.80;;;28.20;47.60;;;;;;5071022;28;20450;-68
2022/05/30 11:31:51;;;;;;;2.70;1.43;;;28.50;47.40;;;;;;5067091;28;20479;-67
2022/05/30 11:34:48;;;;;;;3.13;1.37;;;29.00;48.50;;;;;;5067889;28;20485;-68
2022/05/30 11:37:41;;;;;;;4.80;1.50;;;28.90;45.80;;;;;;5058017;28;20455;-68
2022/05/30 11:40:19;;;;;;;2.60;1.40;;;28.60;45.70;;;;;;5064878;28;20473;-67
2022/05/30 11:42:56;;;;;;;2.30;1.53;;;28.00;44.30;;;;;;5068219;28;20435;-67
2022/05/30 11:45:41;;;;;;;2.77;1.30;;;28.30;45.10;;;;;;5064549;28;20956;-69
2022/05/30 11:48:13;;;;;;;2.57;1.43;;;27.70;48.50;;;;;;5064964;28;20450;-67
2022/05/30 11:50:49;;;;;;;2.73;1.53;;;27.40;46.20;;;;;;5065338;28;20486;-67
2022/05/30 11:53:34;;;;;;;2.77;1.40;;;26.90;51.20;;;;;;5067532;28;20439;-67
2022/05/30 11:56:12;;;;;;;2.77;1.40;;;27.80;50.10;;;;;;5067376;28;20530;-68
2022/05/30 11:59:06;;;;;;;3.10;1.43;;;28.40;46.30;;;;;;5070281;28;20447;-68
2022/05/30 12:01:37;;;;;;;3.20;1.43;;;28.00;47.10;;;;;;5068356;28;20474;-67
2022/05/30 12:04:38;;;;;;;2.67;1.30;;;27.30;45.90;;;;;;5070472;28;20852;-67
2022/05/30 12:07:45;;;;;;;4.80;1.60;;;26.30;48.40;;;;;;5062847;28;20558;-67
2022/05/30 12:10:27;;;;;;;2.90;1.57;;;25.30;48.70;;;;;;5066028;28;20481;-67
2022/05/30 12:13:07;;;;;;;2.70;1.60;;;24.20;48.40;;;;;;5066625;28;20496;-66
2022/05/30 12:16:08;;;;;;;2.73;1.50;;;23.30;49.80;;;;;;5070957;28;20453;-67
2022/05/30 12:24:40;;;;;;;2.37;1.50;;;23.60;46.60;;;;;;5065948;28;20861;-66
2022/05/30 12:27:35;;;;;;;3.47;1.93;;;23.80;45.20;;;;;;5069571;28;20443;-66
2022/05/30 12:30:05;;;;;;;3.00;1.90;;;23.90;46.90;;;;;;5066512;28;20481;-67
2022/05/30 12:32:41;;;;;;;4.43;2.40;;;24.30;46.10;;;;;;5069580;28;20870;-66
2022/05/30 12:35:21;;;;;;;3.33;1.70;;;25.00;45.40;;;;;;5068030;28;20450;-67
2022/05/30 12:37:51;;;;;;;3.50;2.33;;;25.50;48.00;;;;;;5068781;28;20447;-67
2022/05/30 12:40:34;;;;;;;4.10;2.27;;;26.70;43.20;;;;;;5069018;28;20944;-66
2022/05/30 12:43:06;;;;;;;2.17;1.37;;;27.20;42.90;;;;;;5069045;28;20484;-67
2022/05/30 12:45:40;;;;;;;3.10;1.97;;;27.10;45.00;;;;;;5067619;28;20466;-67
2022/05/30 12:48:19;;;;;;;3.40;1.83;;;27.90;42.50;;;;;;5069337;28;20443;-66
2022/05/30 12:51:11;;;;;;;3.60;1.47;;;26.80;43.70;;;;;;5063683;28;20833;-66
2022/05/30 12:54:23;;;;;;;3.30;1.90;;;27.00;47.30;;;;;;5069470;28;20455;-69
2022/05/30 12:57:12;;;;;;;2.83;1.70;;;25.00;44.70;;;;;;5034967;28;20451;-69
2022/05/30 13:00:17;;;;;;;2.93;1.87;;;24.30;50.20;;;;;;5069170;28;20967;-67
2022/05/30 13:03:09;;;;;;;3.93;1.97;;;23.10;46.30;;;;;;5064988;28;20453;-67
2022/05/30 13:06:01;;;;;;;3.60;1.30;;;22.50;49.00;;;;;;5065800;28;20454;-69
2022/05/30 13:09:02;;;;;;;3.10;1.80;;;23.00;47.30;;;;;;5065576;28;20439;-68
2022/05/30 13:12:03;;;;;;;3.33;1.73;;;23.90;48.40;;;;;;5052115;28;20463;-68
2022/05/30 13:15:06;;;;;;;4.43;2.17;;;24.10;45.40;;;;;;5064314;28;20447;-68
2022/05/30 13:17:43;;;;;;;3.73;1.90;;;23.80;44.20;;;;;;5053661;28;20438;-68
2022/05/30 13:20:12;;;;;;;4.20;2.07;;;23.90;46.40;;;;;;5066623;28;20470;-67
2022/05/30 13:22:42;;;;;;;3.33;1.90;;;23.30;44.60;;;;;;5068448;28;20470;-68
2022/05/30 13:25:13;;;;;;;2.90;1.93;;;22.40;46.20;;;;;;5068360;28;20486;-67
2022/05/30 13:27:40;;;;;;;4.27;2.20;;;21.70;46.10;;;;;;5068198;28;20972;-68
2022/05/30 13:30:14;;;;;;;3.77;1.83;;;21.40;48.90;;;;;;5067634;28;20485;-67
2022/05/30 13:32:41;;;;;;;4.40;1.70;;;21.60;50.70;;;;;;5068568;28;20500;-67
2022/05/30 13:35:12;;;;;;;2.70;1.80;;;22.80;46.50;;;;;;5067992;28;20814;-67